sensor_id;sensor_type;location;lat;lon;timestamp;P1;durP1;ratioP1;P2;durP2;ratioP2
64982;SDS011;62161;54.688;25.256;2022-09-03T00:04:33;3.40;;;1.92;;
64982;SDS011;62161;54.688;25.256;2022-09-03T00:07:10;4.28;;;2.10;;
64982;SDS011;62161;54.688;25.256;2022-09-03T00:09:52;9.27;;;2.28;;
64982;SDS011;62161;54.688;25.256;2022-09-03T00:12:29;6.10;;;2.00;;
64982;SDS011;62161;54.688;25.256;2022-09-03T00:15:05;5.53;;;2.05;;
64982;SDS011;62161;54.688;25.256;2022-09-03T00:17:47;9.40;;;2.28;;
64982;SDS011;62161;54.688;25.256;2022-09-03T00:20:53;5.65;;;2.42;;
64982;SDS011;62161;54.688;25.256;2022-09-03T00:23:23;5.72;;;2.53;;
64982;SDS011;62161;54.688;25.256;2022-09-03T00:25:57;6.53;;;2.90;;
64982;SDS011;62161;54.688;25.256;2022-09-03T00:28:30;4.75;;;2.30;;
64982;SDS011;62161;54.688;25.256;2022-09-03T00:31:11;8.80;;;2.72;;
64982;SDS011;62161;54.688;25.256;2022-09-03T00:33:42;5.53;;;2.55;;
64982;SDS011;62161;54.688;25.256;2022-09-03T00:36:15;5.43;;;2.58;;
64982;SDS011;62161;54.688;25.256;2022-09-03T00:38:45;6.22;;;2.55;;
64982;SDS011;62161;54.688;25.256;2022-09-03T01:00:40;4.50;;;2.17;;
64982;SDS011;62161;54.688;25.256;2022-09-03T01:17:05;4.35;;;2.20;;
64982;SDS011;62161;54.688;25.256;2022-09-03T01:25:14;3.97;;;2.00;;
64982;SDS011;62161;54.688;25.256;2022-09-03T01:31:11;3.33;;;2.05;;
64982;SDS011;62161;54.688;25.256;2022-09-03T01:33:43;7.22;;;2.10;;
64982;SDS011;62161;54.688;25.256;2022-09-03T01:39:11;5.05;;;1.95;;
64982;SDS011;62161;54.688;25.256;2022-09-03T01:41:46;3.70;;;2.05;;
64982;SDS011;62161;54.688;25.256;2022-09-03T01:47:38;5.32;;;2.20;;
64982;SDS011;62161;54.688;25.256;2022-09-03T01:51:27;6.20;;;2.20;;
64982;SDS011;62161;54.688;25.256;2022-09-03T01:53:44;5.22;;;2.30;;
64982;SDS011;62161;54.688;25.256;2022-09-03T02:01:58;7.43;;;2.58;;
64982;SDS011;62161;54.688;25.256;2022-09-03T02:04:30;4.45;;;2.40;;
64982;SDS011;62161;54.688;25.256;2022-09-03T02:06:57;5.15;;;2.63;;
64982;SDS011;62161;54.688;25.256;2022-09-03T02:09:24;4.68;;;2.33;;
64982;SDS011;62161;54.688;25.256;2022-09-03T02:11:54;6.40;;;2.70;;
64982;SDS011;62161;54.688;25.256;2022-09-03T02:14:25;4.40;;;2.25;;
64982;SDS011;62161;54.688;25.256;2022-09-03T02:16:52;6.43;;;2.42;;
64982;SDS011;62161;54.688;25.256;2022-09-03T02:19:22;4.00;;;2.30;;
64982;SDS011;62161;54.688;25.256;2022-09-03T02:21:52;9.95;;;2.53;;
64982;SDS011;62161;54.688;25.256;2022-09-03T02:24:19;10.55;;;2.70;;
64982;SDS011;62161;54.688;25.256;2022-09-03T02:26:45;6.72;;;2.50;;
64982;SDS011;62161;54.688;25.256;2022-09-03T02:29:11;6.50;;;2.30;;
64982;SDS011;62161;54.688;25.256;2022-09-03T02:31:38;4.57;;;2.42;;
64982;SDS011;62161;54.688;25.256;2022-09-03T02:34:03;3.78;;;2.20;;
64982;SDS011;62161;54.688;25.256;2022-09-03T02:36:30;7.13;;;2.42;;
64982;SDS011;62161;54.688;25.256;2022-09-03T02:38:59;5.05;;;2.45;;
64982;SDS011;62161;54.688;25.256;2022-09-03T02:41:24;5.93;;;2.28;;
64982;SDS011;62161;54.688;25.256;2022-09-03T02:44:34;6.45;;;2.42;;
64982;SDS011;62161;54.688;25.256;2022-09-03T02:46:51;5.80;;;2.35;;
64982;SDS011;62161;54.688;25.256;2022-09-03T02:49:21;6.60;;;2.23;;
64982;SDS011;62161;54.688;25.256;2022-09-03T02:51:47;4.68;;;2.35;;
64982;SDS011;62161;54.688;25.256;2022-09-03T02:54:12;5.43;;;2.20;;
64982;SDS011;62161;54.688;25.256;2022-09-03T02:56:38;9.55;;;2.60;;
64982;SDS011;62161;54.688;25.256;2022-09-03T02:59:04;5.97;;;2.15;;
64982;SDS011;62161;54.688;25.256;2022-09-03T03:01:31;7.53;;;2.45;;
64982;SDS011;62161;54.688;25.256;2022-09-03T03:03:56;6.15;;;2.67;;
64982;SDS011;62161;54.688;25.256;2022-09-03T03:06:22;5.15;;;2.20;;
64982;SDS011;62161;54.688;25.256;2022-09-03T03:08:48;8.30;;;2.30;;
64982;SDS011;62161;54.688;25.256;2022-09-03T03:11:14;5.10;;;2.40;;
64982;SDS011;62161;54.688;25.256;2022-09-03T03:13:44;8.13;;;2.53;;
64982;SDS011;62161;54.688;25.256;2022-09-03T03:16:11;6.00;;;2.47;;
64982;SDS011;62161;54.688;25.256;2022-09-03T03:18:37;4.53;;;2.13;;
64982;SDS011;62161;54.688;25.256;2022-09-03T03:21:07;5.43;;;2.20;;
64982;SDS011;62161;54.688;25.256;2022-09-03T03:23:34;5.88;;;2.47;;
64982;SDS011;62161;54.688;25.256;2022-09-03T03:26:00;5.63;;;2.50;;
64982;SDS011;62161;54.688;25.256;2022-09-03T03:28:26;5.38;;;2.67;;
64982;SDS011;62161;54.688;25.256;2022-09-03T03:30:52;9.20;;;3.03;;
64982;SDS011;62161;54.688;25.256;2022-09-03T03:33:17;6.82;;;2.97;;
64982;SDS011;62161;54.688;25.256;2022-09-03T03:35:43;6.53;;;2.70;;
64982;SDS011;62161;54.688;25.256;2022-09-03T03:38:08;5.38;;;2.60;;
64982;SDS011;62161;54.688;25.256;2022-09-03T03:40:34;3.80;;;2.40;;
64982;SDS011;62161;54.688;25.256;2022-09-03T03:43:02;6.53;;;2.83;;
64982;SDS011;62161;54.688;25.256;2022-09-03T03:45:27;6.53;;;2.65;;
64982;SDS011;62161;54.688;25.256;2022-09-03T03:47:56;6.63;;;2.47;;
64982;SDS011;62161;54.688;25.256;2022-09-03T03:50:22;3.78;;;2.20;;
64982;SDS011;62161;54.688;25.256;2022-09-03T03:52:48;4.57;;;2.33;;
64982;SDS011;62161;54.688;25.256;2022-09-03T03:55:13;4.68;;;2.45;;
64982;SDS011;62161;54.688;25.256;2022-09-03T03:57:39;7.10;;;2.38;;
64982;SDS011;62161;54.688;25.256;2022-09-03T04:00:05;4.40;;;2.50;;
64982;SDS011;62161;54.688;25.256;2022-09-03T04:02:31;6.25;;;2.53;;
64982;SDS011;62161;54.688;25.256;2022-09-03T04:04:58;6.10;;;2.55;;
64982;SDS011;62161;54.688;25.256;2022-09-03T04:07:24;6.72;;;2.60;;
64982;SDS011;62161;54.688;25.256;2022-09-03T04:09:49;5.90;;;2.50;;
64982;SDS011;62161;54.688;25.256;2022-09-03T04:12:15;5.75;;;2.20;;
64982;SDS011;62161;54.688;25.256;2022-09-03T04:14:40;7.47;;;2.30;;
64982;SDS011;62161;54.688;25.256;2022-09-03T04:17:06;6.18;;;2.25;;
64982;SDS011;62161;54.688;25.256;2022-09-03T04:19:31;5.53;;;2.03;;
64982;SDS011;62161;54.688;25.256;2022-09-03T04:21:57;7.13;;;2.33;;
64982;SDS011;62161;54.688;25.256;2022-09-03T04:24:22;4.70;;;2.22;;
64982;SDS011;62161;54.688;25.256;2022-09-03T04:26:48;4.32;;;2.20;;
64982;SDS011;62161;54.688;25.256;2022-09-03T04:29:14;5.65;;;2.30;;
64982;SDS011;62161;54.688;25.256;2022-09-03T04:31:40;7.03;;;2.10;;
64982;SDS011;62161;54.688;25.256;2022-09-03T04:34:25;10.20;;;2.60;;
64982;SDS011;62161;54.688;25.256;2022-09-03T04:36:50;5.15;;;2.58;;
64982;SDS011;62161;54.688;25.256;2022-09-03T04:39:16;10.00;;;2.70;;
64982;SDS011;62161;54.688;25.256;2022-09-03T04:41:41;7.30;;;2.83;;
64982;SDS011;62161;54.688;25.256;2022-09-03T04:44:07;5.28;;;2.65;;
64982;SDS011;62161;54.688;25.256;2022-09-03T04:46:32;3.85;;;2.55;;
64982;SDS011;62161;54.688;25.256;2022-09-03T04:48:58;19.38;;;6.95;;
64982;SDS011;62161;54.688;25.256;2022-09-03T04:51:24;13.20;;;6.35;;
64982;SDS011;62161;54.688;25.256;2022-09-03T04:53:55;16.40;;;7.50;;
64982;SDS011;62161;54.688;25.256;2022-09-03T04:56:24;10.35;;;4.70;;
64982;SDS011;62161;54.688;25.256;2022-09-03T04:58:55;5.72;;;3.15;;
64982;SDS011;62161;54.688;25.256;2022-09-03T05:01:26;4.25;;;2.53;;
64982;SDS011;62161;54.688;25.256;2022-09-03T05:03:56;6.25;;;3.33;;
64982;SDS011;62161;54.688;25.256;2022-09-03T05:06:22;2.70;;;1.67;;
64982;SDS011;62161;54.688;25.256;2022-09-03T05:08:49;3.35;;;1.50;;
64982;SDS011;62161;54.688;25.256;2022-09-03T05:11:16;3.70;;;1.65;;
64982;SDS011;62161;54.688;25.256;2022-09-03T05:13:45;4.35;;;1.60;;
64982;SDS011;62161;54.688;25.256;2022-09-03T05:16:13;3.58;;;1.52;;
64982;SDS011;62161;54.688;25.256;2022-09-03T05:18:38;2.00;;;1.45;;
64982;SDS011;62161;54.688;25.256;2022-09-03T05:21:06;3.00;;;1.77;;
64982;SDS011;62161;54.688;25.256;2022-09-03T05:23:51;4.00;;;2.17;;
64982;SDS011;62161;54.688;25.256;2022-09-03T05:26:18;4.13;;;1.85;;
64982;SDS011;62161;54.688;25.256;2022-09-03T05:28:46;4.53;;;1.63;;
64982;SDS011;62161;54.688;25.256;2022-09-03T05:31:16;5.85;;;2.05;;
64982;SDS011;62161;54.688;25.256;2022-09-03T05:33:44;6.30;;;2.10;;
64982;SDS011;62161;54.688;25.256;2022-09-03T05:36:12;3.20;;;1.60;;
64982;SDS011;62161;54.688;25.256;2022-09-03T05:38:39;2.95;;;1.80;;
64982;SDS011;62161;54.688;25.256;2022-09-03T05:41:06;5.47;;;1.88;;
64982;SDS011;62161;54.688;25.256;2022-09-03T05:43:33;7.35;;;2.20;;
64982;SDS011;62161;54.688;25.256;2022-09-03T05:46:03;5.85;;;2.00;;
64982;SDS011;62161;54.688;25.256;2022-09-03T05:48:32;2.42;;;1.65;;
64982;SDS011;62161;54.688;25.256;2022-09-03T05:51:08;3.85;;;2.10;;
64982;SDS011;62161;54.688;25.256;2022-09-03T05:53:36;3.88;;;2.10;;
64982;SDS011;62161;54.688;25.256;2022-09-03T05:56:04;8.10;;;2.53;;
64982;SDS011;62161;54.688;25.256;2022-09-03T05:58:36;5.78;;;3.05;;
64982;SDS011;62161;54.688;25.256;2022-09-03T06:06:02;15.02;;;4.30;;
64982;SDS011;62161;54.688;25.256;2022-09-03T06:08:29;7.10;;;3.75;;
64982;SDS011;62161;54.688;25.256;2022-09-03T06:10:58;7.75;;;4.10;;
64982;SDS011;62161;54.688;25.256;2022-09-03T06:13:24;6.45;;;3.63;;
64982;SDS011;62161;54.688;25.256;2022-09-03T06:15:54;8.73;;;3.78;;
64982;SDS011;62161;54.688;25.256;2022-09-03T06:18:24;7.70;;;3.55;;
64982;SDS011;62161;54.688;25.256;2022-09-03T06:21:04;8.98;;;2.65;;
64982;SDS011;62161;54.688;25.256;2022-09-03T06:23:31;7.60;;;2.50;;
64982;SDS011;62161;54.688;25.256;2022-09-03T06:26:01;3.47;;;2.20;;
64982;SDS011;62161;54.688;25.256;2022-09-03T06:28:29;6.80;;;2.35;;
64982;SDS011;62161;54.688;25.256;2022-09-03T06:30:58;6.65;;;2.10;;
64982;SDS011;62161;54.688;25.256;2022-09-03T06:33:26;4.50;;;2.30;;
64982;SDS011;62161;54.688;25.256;2022-09-03T06:35:54;4.68;;;2.50;;
64982;SDS011;62161;54.688;25.256;2022-09-03T06:38:24;8.85;;;2.50;;
64982;SDS011;62161;54.688;25.256;2022-09-03T06:40:54;6.20;;;2.20;;
64982;SDS011;62161;54.688;25.256;2022-09-03T06:43:20;3.65;;;2.10;;
64982;SDS011;62161;54.688;25.256;2022-09-03T06:45:54;9.85;;;2.10;;
64982;SDS011;62161;54.688;25.256;2022-09-03T06:48:19;5.82;;;2.28;;
64982;SDS011;62161;54.688;25.256;2022-09-03T06:50:52;5.70;;;2.13;;
64982;SDS011;62161;54.688;25.256;2022-09-03T06:53:24;3.53;;;1.90;;
64982;SDS011;62161;54.688;25.256;2022-09-03T06:55:55;4.90;;;1.83;;
64982;SDS011;62161;54.688;25.256;2022-09-03T06:58:22;2.85;;;1.60;;
64982;SDS011;62161;54.688;25.256;2022-09-03T07:00:48;3.25;;;1.85;;
64982;SDS011;62161;54.688;25.256;2022-09-03T07:03:14;3.28;;;2.30;;
64982;SDS011;62161;54.688;25.256;2022-09-03T07:05:43;4.90;;;2.00;;
64982;SDS011;62161;54.688;25.256;2022-09-03T07:08:09;2.13;;;1.50;;
64982;SDS011;62161;54.688;25.256;2022-09-03T07:10:37;1.90;;;1.45;;
64982;SDS011;62161;54.688;25.256;2022-09-03T07:13:03;2.10;;;1.38;;
64982;SDS011;62161;54.688;25.256;2022-09-03T07:15:31;3.75;;;1.30;;
64982;SDS011;62161;54.688;25.256;2022-09-03T07:17:57;1.98;;;1.20;;
64982;SDS011;62161;54.688;25.256;2022-09-03T07:20:23;1.80;;;0.98;;
64982;SDS011;62161;54.688;25.256;2022-09-03T07:22:48;3.78;;;0.80;;
64982;SDS011;62161;54.688;25.256;2022-09-03T07:25:13;1.40;;;0.70;;
64982;SDS011;62161;54.688;25.256;2022-09-03T07:27:39;2.00;;;0.70;;
64982;SDS011;62161;54.688;25.256;2022-09-03T07:30:04;1.92;;;0.73;;
64982;SDS011;62161;54.688;25.256;2022-09-03T07:32:33;1.25;;;0.80;;
64982;SDS011;62161;54.688;25.256;2022-09-03T07:35:00;3.90;;;1.00;;
64982;SDS011;62161;54.688;25.256;2022-09-03T07:37:26;2.70;;;0.93;;
64982;SDS011;62161;54.688;25.256;2022-09-03T07:39:51;1.80;;;0.93;;
64982;SDS011;62161;54.688;25.256;2022-09-03T07:42:18;2.50;;;0.95;;
64982;SDS011;62161;54.688;25.256;2022-09-03T07:44:44;2.13;;;0.90;;
64982;SDS011;62161;54.688;25.256;2022-09-03T07:47:11;1.65;;;1.10;;
64982;SDS011;62161;54.688;25.256;2022-09-03T07:49:37;2.60;;;1.10;;
64982;SDS011;62161;54.688;25.256;2022-09-03T07:52:02;1.35;;;1.00;;
64982;SDS011;62161;54.688;25.256;2022-09-03T07:54:28;2.55;;;0.90;;
64982;SDS011;62161;54.688;25.256;2022-09-03T07:56:54;4.32;;;0.90;;
64982;SDS011;62161;54.688;25.256;2022-09-03T07:59:19;1.85;;;0.90;;
64982;SDS011;62161;54.688;25.256;2022-09-03T08:01:46;3.70;;;0.85;;
64982;SDS011;62161;54.688;25.256;2022-09-03T08:04:12;4.28;;;1.02;;
64982;SDS011;62161;54.688;25.256;2022-09-03T08:06:38;1.20;;;0.73;;
64982;SDS011;62161;54.688;25.256;2022-09-03T08:09:05;2.13;;;0.80;;
64982;SDS011;62161;54.688;25.256;2022-09-03T08:11:35;5.78;;;0.90;;
64982;SDS011;62161;54.688;25.256;2022-09-03T08:14:11;1.27;;;0.80;;
64982;SDS011;62161;54.688;25.256;2022-09-03T08:16:39;2.10;;;0.80;;
64982;SDS011;62161;54.688;25.256;2022-09-03T08:19:06;2.90;;;0.80;;
64982;SDS011;62161;54.688;25.256;2022-09-03T08:21:32;3.05;;;0.82;;
64982;SDS011;62161;54.688;25.256;2022-09-03T08:23:59;4.00;;;1.05;;
64982;SDS011;62161;54.688;25.256;2022-09-03T08:26:27;2.17;;;0.80;;
64982;SDS011;62161;54.688;25.256;2022-09-03T08:28:55;1.48;;;0.82;;
64982;SDS011;62161;54.688;25.256;2022-09-03T08:31:21;3.72;;;0.82;;
64982;SDS011;62161;54.688;25.256;2022-09-03T08:33:49;1.85;;;1.00;;
64982;SDS011;62161;54.688;25.256;2022-09-03T08:38:49;2.25;;;0.60;;
64982;SDS011;62161;54.688;25.256;2022-09-03T08:47:05;1.83;;;0.80;;
64982;SDS011;62161;54.688;25.256;2022-09-03T08:49:50;3.35;;;0.70;;
64982;SDS011;62161;54.688;25.256;2022-09-03T08:52:34;4.25;;;0.70;;
64982;SDS011;62161;54.688;25.256;2022-09-03T09:00:51;0.93;;;0.50;;
64982;SDS011;62161;54.688;25.256;2022-09-03T09:04:10;3.60;;;0.52;;
64982;SDS011;62161;54.688;25.256;2022-09-03T09:06:37;3.35;;;0.55;;
64982;SDS011;62161;54.688;25.256;2022-09-03T09:09:34;1.00;;;0.50;;
64982;SDS011;62161;54.688;25.256;2022-09-03T09:20:03;3.70;;;0.90;;
64982;SDS011;62161;54.688;25.256;2022-09-03T09:22:38;1.55;;;1.10;;
64982;SDS011;62161;54.688;25.256;2022-09-03T09:25:09;2.05;;;0.60;;
64982;SDS011;62161;54.688;25.256;2022-09-03T09:28:22;1.23;;;0.60;;
64982;SDS011;62161;54.688;25.256;2022-09-03T09:30:34;1.17;;;0.50;;
64982;SDS011;62161;54.688;25.256;2022-09-03T09:33:01;1.50;;;0.70;;
64982;SDS011;62161;54.688;25.256;2022-09-03T09:35:27;2.85;;;0.90;;
64982;SDS011;62161;54.688;25.256;2022-09-03T09:37:53;0.70;;;0.47;;
64982;SDS011;62161;54.688;25.256;2022-09-03T09:40:22;2.22;;;0.60;;
64982;SDS011;62161;54.688;25.256;2022-09-03T09:43:10;1.13;;;0.60;;
64982;SDS011;62161;54.688;25.256;2022-09-03T09:45:42;1.08;;;0.50;;
64982;SDS011;62161;54.688;25.256;2022-09-03T09:51:02;2.30;;;0.60;;
64982;SDS011;62161;54.688;25.256;2022-09-03T09:53:33;2.15;;;1.40;;
64982;SDS011;62161;54.688;25.256;2022-09-03T09:55:59;1.85;;;0.57;;
64982;SDS011;62161;54.688;25.256;2022-09-03T09:58:27;2.30;;;0.60;;
64982;SDS011;62161;54.688;25.256;2022-09-03T10:01:05;1.48;;;0.60;;
64982;SDS011;62161;54.688;25.256;2022-09-03T10:03:53;2.35;;;0.50;;
64982;SDS011;62161;54.688;25.256;2022-09-03T10:06:23;0.85;;;0.47;;
64982;SDS011;62161;54.688;25.256;2022-09-03T10:09:10;3.63;;;0.52;;
64982;SDS011;62161;54.688;25.256;2022-09-03T10:11:41;1.17;;;0.50;;
64982;SDS011;62161;54.688;25.256;2022-09-03T10:14:54;2.28;;;0.50;;
64982;SDS011;62161;54.688;25.256;2022-09-03T10:22:58;1.27;;;0.70;;
64982;SDS011;62161;54.688;25.256;2022-09-03T10:25:29;1.23;;;0.63;;
64982;SDS011;62161;54.688;25.256;2022-09-03T10:28:04;1.02;;;0.63;;
64982;SDS011;62161;54.688;25.256;2022-09-03T10:30:35;4.00;;;0.70;;
64982;SDS011;62161;54.688;25.256;2022-09-03T10:33:15;2.20;;;0.60;;
64982;SDS011;62161;54.688;25.256;2022-09-03T10:38:17;1.75;;;0.60;;
64982;SDS011;62161;54.688;25.256;2022-09-03T10:46:05;3.70;;;0.70;;
64982;SDS011;62161;54.688;25.256;2022-09-03T11:00:09;1.33;;;0.40;;
64982;SDS011;62161;54.688;25.256;2022-09-03T11:07:58;5.45;;;0.70;;
64982;SDS011;62161;54.688;25.256;2022-09-03T11:10:34;3.63;;;0.70;;
64982;SDS011;62161;54.688;25.256;2022-09-03T11:18:02;2.35;;;0.50;;
64982;SDS011;62161;54.688;25.256;2022-09-03T11:20:36;1.42;;;0.65;;
64982;SDS011;62161;54.688;25.256;2022-09-03T11:23:03;2.65;;;0.70;;
64982;SDS011;62161;54.688;25.256;2022-09-03T11:25:33;4.65;;;0.80;;
64982;SDS011;62161;54.688;25.256;2022-09-03T11:28:36;1.63;;;0.70;;
64982;SDS011;62161;54.688;25.256;2022-09-03T11:34:00;1.00;;;0.60;;
64982;SDS011;62161;54.688;25.256;2022-09-03T11:36:38;2.03;;;1.05;;
64982;SDS011;62161;54.688;25.256;2022-09-03T11:39:21;2.20;;;1.10;;
64982;SDS011;62161;54.688;25.256;2022-09-03T11:42:00;1.80;;;0.90;;
64982;SDS011;62161;54.688;25.256;2022-09-03T11:44:38;2.55;;;0.60;;
64982;SDS011;62161;54.688;25.256;2022-09-03T11:47:15;2.25;;;0.70;;
64982;SDS011;62161;54.688;25.256;2022-09-03T11:50:15;0.88;;;0.75;;
64982;SDS011;62161;54.688;25.256;2022-09-03T11:52:46;1.00;;;0.65;;
64982;SDS011;62161;54.688;25.256;2022-09-03T11:55:23;1.45;;;0.60;;
64982;SDS011;62161;54.688;25.256;2022-09-03T11:57:55;0.75;;;0.52;;
64982;SDS011;62161;54.688;25.256;2022-09-03T12:00:21;3.20;;;0.60;;
64982;SDS011;62161;54.688;25.256;2022-09-03T12:03:00;1.77;;;0.60;;
64982;SDS011;62161;54.688;25.256;2022-09-03T12:13:58;1.30;;;0.68;;
64982;SDS011;62161;54.688;25.256;2022-09-03T12:19:30;2.10;;;0.55;;
64982;SDS011;62161;54.688;25.256;2022-09-03T12:22:21;4.50;;;0.90;;
64982;SDS011;62161;54.688;25.256;2022-09-03T12:24:48;4.15;;;0.95;;
64982;SDS011;62161;54.688;25.256;2022-09-03T12:27:18;4.65;;;0.60;;
64982;SDS011;62161;54.688;25.256;2022-09-03T12:32:20;1.50;;;0.50;;
64982;SDS011;62161;54.688;25.256;2022-09-03T12:34:45;1.30;;;0.60;;
64982;SDS011;62161;54.688;25.256;2022-09-03T12:37:31;6.05;;;0.80;;
64982;SDS011;62161;54.688;25.256;2022-09-03T12:40:00;4.72;;;0.73;;
64982;SDS011;62161;54.688;25.256;2022-09-03T12:42:26;4.78;;;0.70;;
64982;SDS011;62161;54.688;25.256;2022-09-03T12:44:54;7.72;;;0.80;;
64982;SDS011;62161;54.688;25.256;2022-09-03T12:47:21;2.80;;;0.68;;
64982;SDS011;62161;54.688;25.256;2022-09-03T12:49:49;2.75;;;0.68;;
64982;SDS011;62161;54.688;25.256;2022-09-03T12:52:20;0.88;;;0.60;;
64982;SDS011;62161;54.688;25.256;2022-09-03T12:57:21;1.10;;;0.50;;
64982;SDS011;62161;54.688;25.256;2022-09-03T12:59:51;1.08;;;0.50;;
64982;SDS011;62161;54.688;25.256;2022-09-03T13:02:25;1.13;;;0.65;;
64982;SDS011;62161;54.688;25.256;2022-09-03T13:04:59;2.47;;;0.60;;
64982;SDS011;62161;54.688;25.256;2022-09-03T13:07:27;2.53;;;0.57;;
64982;SDS011;62161;54.688;25.256;2022-09-03T13:10:00;1.45;;;0.70;;
64982;SDS011;62161;54.688;25.256;2022-09-03T13:12:32;0.95;;;0.50;;
64982;SDS011;62161;54.688;25.256;2022-09-03T13:15:06;0.90;;;0.55;;
64982;SDS011;62161;54.688;25.256;2022-09-03T13:17:37;4.60;;;1.05;;
64982;SDS011;62161;54.688;25.256;2022-09-03T13:20:25;1.17;;;0.60;;
64982;SDS011;62161;54.688;25.256;2022-09-03T13:25:27;2.45;;;0.60;;
64982;SDS011;62161;54.688;25.256;2022-09-03T13:31:01;1.45;;;0.60;;
64982;SDS011;62161;54.688;25.256;2022-09-03T13:33:42;1.13;;;0.50;;
64982;SDS011;62161;54.688;25.256;2022-09-03T13:36:20;1.42;;;0.60;;
64982;SDS011;62161;54.688;25.256;2022-09-03T13:38:51;1.88;;;0.70;;
64982;SDS011;62161;54.688;25.256;2022-09-03T13:41:42;2.10;;;0.60;;
64982;SDS011;62161;54.688;25.256;2022-09-03T13:44:15;0.95;;;0.63;;
64982;SDS011;62161;54.688;25.256;2022-09-03T13:46:53;2.08;;;0.60;;
64982;SDS011;62161;54.688;25.256;2022-09-03T13:52:30;1.45;;;0.70;;
64982;SDS011;62161;54.688;25.256;2022-09-03T13:57:48;5.65;;;0.80;;
64982;SDS011;62161;54.688;25.256;2022-09-03T14:00:22;2.85;;;0.70;;
64982;SDS011;62161;54.688;25.256;2022-09-03T14:24:18;2.47;;;0.57;;
64982;SDS011;62161;54.688;25.256;2022-09-03T14:26:49;5.60;;;0.70;;
64982;SDS011;62161;54.688;25.256;2022-09-03T14:29:15;2.25;;;0.60;;
64982;SDS011;62161;54.688;25.256;2022-09-03T14:40:27;4.97;;;0.73;;
64982;SDS011;62161;54.688;25.256;2022-09-03T14:46:05;2.13;;;0.70;;
64982;SDS011;62161;54.688;25.256;2022-09-03T14:51:37;2.35;;;0.70;;
64982;SDS011;62161;54.688;25.256;2022-09-03T15:08:10;5.43;;;0.82;;
64982;SDS011;62161;54.688;25.256;2022-09-03T15:10:53;1.85;;;0.63;;
64982;SDS011;62161;54.688;25.256;2022-09-03T15:13:29;2.60;;;0.60;;
64982;SDS011;62161;54.688;25.256;2022-09-03T15:21:52;3.63;;;0.90;;
64982;SDS011;62161;54.688;25.256;2022-09-03T15:30:18;3.35;;;0.63;;
64982;SDS011;62161;54.688;25.256;2022-09-03T15:32:47;2.97;;;0.55;;
64982;SDS011;62161;54.688;25.256;2022-09-03T15:41:09;0.70;;;0.60;;
64982;SDS011;62161;54.688;25.256;2022-09-03T15:43:57;1.20;;;0.88;;
64982;SDS011;62161;54.688;25.256;2022-09-03T15:46:36;1.60;;;0.90;;
64982;SDS011;62161;54.688;25.256;2022-09-03T15:49:07;3.97;;;1.00;;
64982;SDS011;62161;54.688;25.256;2022-09-03T15:54:37;1.02;;;0.70;;
64982;SDS011;62161;54.688;25.256;2022-09-03T15:57:17;2.35;;;0.65;;
64982;SDS011;62161;54.688;25.256;2022-09-03T16:02:38;6.00;;;0.70;;
64982;SDS011;62161;54.688;25.256;2022-09-03T16:05:24;2.13;;;0.70;;
64982;SDS011;62161;54.688;25.256;2022-09-03T16:10:44;2.40;;;0.80;;
64982;SDS011;62161;54.688;25.256;2022-09-03T16:13:31;3.38;;;0.70;;
64982;SDS011;62161;54.688;25.256;2022-09-03T16:16:15;8.02;;;0.88;;
64982;SDS011;62161;54.688;25.256;2022-09-03T16:18:54;1.02;;;0.70;;
64982;SDS011;62161;54.688;25.256;2022-09-03T16:24:25;2.70;;;0.80;;
64982;SDS011;62161;54.688;25.256;2022-09-03T16:29:29;2.22;;;0.63;;
64982;SDS011;62161;54.688;25.256;2022-09-03T16:34:38;2.08;;;0.70;;
64982;SDS011;62161;54.688;25.256;2022-09-03T16:39:56;1.07;;;0.77;;
64982;SDS011;62161;54.688;25.256;2022-09-03T16:51:55;1.98;;;0.70;;
64982;SDS011;62161;54.688;25.256;2022-09-03T17:00:08;1.40;;;0.70;;
64982;SDS011;62161;54.688;25.256;2022-09-03T17:19:44;2.72;;;0.80;;
64982;SDS011;62161;54.688;25.256;2022-09-03T17:22:05;3.20;;;0.90;;
64982;SDS011;62161;54.688;25.256;2022-09-03T17:49:42;2.25;;;0.90;;
64982;SDS011;62161;54.688;25.256;2022-09-03T17:52:19;1.13;;;0.80;;
64982;SDS011;62161;54.688;25.256;2022-09-03T17:54:50;2.90;;;0.90;;
64982;SDS011;62161;54.688;25.256;2022-09-03T17:57:19;3.78;;;1.10;;
64982;SDS011;62161;54.688;25.256;2022-09-03T18:05:23;7.22;;;1.40;;
64982;SDS011;62161;54.688;25.256;2022-09-03T18:08:05;2.90;;;1.50;;
64982;SDS011;62161;54.688;25.256;2022-09-03T18:13:39;4.72;;;1.52;;
64982;SDS011;62161;54.688;25.256;2022-09-03T18:16:27;9.68;;;1.50;;
64982;SDS011;62161;54.688;25.256;2022-09-03T18:19:07;3.20;;;1.30;;
64982;SDS011;62161;54.688;25.256;2022-09-03T18:21:43;3.80;;;1.27;;
64982;SDS011;62161;54.688;25.256;2022-09-03T18:24:32;3.42;;;1.30;;
64982;SDS011;62161;54.688;25.256;2022-09-03T18:27:26;1.90;;;1.27;;
64982;SDS011;62161;54.688;25.256;2022-09-03T18:30:18;3.47;;;1.27;;
64982;SDS011;62161;54.688;25.256;2022-09-03T18:33:02;2.88;;;1.30;;
64982;SDS011;62161;54.688;25.256;2022-09-03T18:35:46;3.85;;;1.50;;
64982;SDS011;62161;54.688;25.256;2022-09-03T18:38:31;3.85;;;1.95;;
64982;SDS011;62161;54.688;25.256;2022-09-03T18:51:05;3.42;;;1.50;;
64982;SDS011;62161;54.688;25.256;2022-09-03T19:01:00;10.55;;;1.98;;
64982;SDS011;62161;54.688;25.256;2022-09-03T19:10:04;3.30;;;2.00;;
64982;SDS011;62161;54.688;25.256;2022-09-03T19:16:04;10.98;;;1.90;;
64982;SDS011;62161;54.688;25.256;2022-09-03T19:22:00;5.30;;;1.70;;
64982;SDS011;62161;54.688;25.256;2022-09-03T19:24:51;5.32;;;1.50;;
64982;SDS011;62161;54.688;25.256;2022-09-03T19:27:46;4.78;;;1.50;;
64982;SDS011;62161;54.688;25.256;2022-09-03T19:57:56;6.78;;;1.77;;
64982;SDS011;62161;54.688;25.256;2022-09-03T20:00:44;5.47;;;1.83;;
64982;SDS011;62161;54.688;25.256;2022-09-03T20:03:29;9.10;;;1.90;;
64982;SDS011;62161;54.688;25.256;2022-09-03T20:06:13;7.35;;;1.88;;
64982;SDS011;62161;54.688;25.256;2022-09-03T20:09:06;6.68;;;1.90;;
64982;SDS011;62161;54.688;25.256;2022-09-03T20:11:52;4.05;;;1.77;;
64982;SDS011;62161;54.688;25.256;2022-09-03T20:14:20;4.50;;;1.80;;
64982;SDS011;62161;54.688;25.256;2022-09-03T20:16:56;7.13;;;1.88;;
64982;SDS011;62161;54.688;25.256;2022-09-03T20:33:51;5.57;;;1.90;;
64982;SDS011;62161;54.688;25.256;2022-09-03T20:55:56;4.88;;;2.03;;
64982;SDS011;62161;54.688;25.256;2022-09-03T20:58:37;6.03;;;2.30;;
64982;SDS011;62161;54.688;25.256;2022-09-03T21:01:28;8.30;;;1.95;;
64982;SDS011;62161;54.688;25.256;2022-09-03T21:07:07;4.78;;;1.90;;
64982;SDS011;62161;54.688;25.256;2022-09-03T21:15:15;5.85;;;2.22;;
64982;SDS011;62161;54.688;25.256;2022-09-03T21:23:21;3.65;;;1.90;;
64982;SDS011;62161;54.688;25.256;2022-09-03T21:28:35;4.82;;;2.30;;
64982;SDS011;62161;54.688;25.256;2022-09-03T21:31:08;11.57;;;2.70;;
64982;SDS011;62161;54.688;25.256;2022-09-03T21:33:51;11.32;;;2.53;;
64982;SDS011;62161;54.688;25.256;2022-09-03T21:36:28;5.13;;;2.30;;
64982;SDS011;62161;54.688;25.256;2022-09-03T21:39:06;7.78;;;2.45;;
64982;SDS011;62161;54.688;25.256;2022-09-03T21:44:15;5.80;;;2.50;;
64982;SDS011;62161;54.688;25.256;2022-09-03T21:47:04;6.18;;;2.70;;
64982;SDS011;62161;54.688;25.256;2022-09-03T21:55:32;7.65;;;2.60;;
64982;SDS011;62161;54.688;25.256;2022-09-03T22:00:30;5.50;;;2.65;;
64982;SDS011;62161;54.688;25.256;2022-09-03T22:02:59;7.07;;;2.80;;
64982;SDS011;62161;54.688;25.256;2022-09-03T22:05:26;7.80;;;2.90;;
64982;SDS011;62161;54.688;25.256;2022-09-03T22:08:03;6.72;;;2.75;;
64982;SDS011;62161;54.688;25.256;2022-09-03T22:16:21;8.77;;;2.45;;